Time;durP1;ratioP1;P1;durP2;ratioP2;P2;SDS_P1;SDS_P2;PMS_P1;PMS_P2;Temp;Humidity;BMP_temperature;BMP_pressure;BME280_temperature;BME280_humidity;BME280_pressure;Samples;Min_cycle;Max_cycle;Signal;HPM_P1;HPM_P2
2023/08/02 00:00:56;;;;;;;3.90;1.57;;;17.10;16.30;;;;;;4935276;29;20473;-72
2023/08/02 00:03:22;;;;;;;2.43;1.23;;;17.10;16.20;;;;;;4934793;29;20421;-70
2023/08/02 00:05:55;;;;;;;3.07;1.40;;;17.10;16.30;;;;;;4938911;28;20441;-70
2023/08/02 00:08:21;;;;;;;2.93;1.73;;;17.10;16.00;;;;;;4973346;28;20192;-69
2023/08/02 00:10:47;;;;;;;2.20;1.40;;;17.10;16.10;;;;;;4972000;28;20508;-70
2023/08/02 00:13:12;;;;;;;2.57;1.60;;;17.10;16.90;;;;;;4973046;28;20864;-69
2023/08/02 00:15:38;;;;;;;4.83;1.80;;;17.10;16.60;;;;;;4972900;28;20233;-70
2023/08/02 00:18:04;;;;;;;2.73;1.23;;;17.00;16.90;;;;;;4973163;28;20181;-70
2023/08/02 00:20:29;;;;;;;2.40;1.60;;;17.00;16.90;;;;;;4973237;28;20178;-70
2023/08/02 00:22:55;;;;;;;4.97;1.73;;;16.90;17.00;;;;;;4972718;28;20185;-70
2023/08/02 00:25:22;;;;;;;2.97;1.83;;;16.80;18.00;;;;;;4973089;28;20220;-70
2023/08/02 00:27:47;;;;;;;2.97;1.70;;;16.70;18.10;;;;;;4973165;28;20647;-70
2023/08/02 00:30:13;;;;;;;3.57;1.70;;;16.70;18.20;;;;;;4973152;28;20425;-70
2023/08/02 00:32:49;;;;;;;3.53;2.03;;;16.60;18.40;;;;;;4972927;28;20538;-70
2023/08/02 00:35:15;;;;;;;5.30;1.80;;;16.50;18.30;;;;;;4973195;28;20678;-70
2023/08/02 00:37:42;;;;;;;3.40;1.73;;;16.50;19.10;;;;;;4973192;28;20436;-70
2023/08/02 00:40:08;;;;;;;2.63;1.50;;;16.50;18.50;;;;;;4973039;28;20567;-69
2023/08/02 00:42:35;;;;;;;3.10;1.90;;;16.40;18.50;;;;;;4972805;28;20428;-69
2023/08/02 00:45:01;;;;;;;3.00;1.80;;;16.30;18.70;;;;;;4972896;28;20789;-69
2023/08/02 00:47:26;;;;;;;3.73;1.50;;;16.30;18.60;;;;;;4972809;28;20432;-69
2023/08/02 00:49:52;;;;;;;2.73;1.93;;;16.20;19.30;;;;;;4972649;28;20941;-69
2023/08/02 00:52:18;;;;;;;3.77;1.83;;;16.20;19.60;;;;;;4974391;28;20186;-69
2023/08/02 00:54:43;;;;;;;3.17;1.90;;;16.20;19.90;;;;;;4976647;28;20673;-69
2023/08/02 00:57:09;;;;;;;2.27;1.53;;;16.10;20.10;;;;;;4975197;28;20216;-69
2023/08/02 00:59:41;;;;;;;3.20;1.50;;;16.00;20.60;;;;;;4976587;28;20177;-69
2023/08/02 01:02:07;;;;;;;3.47;1.40;;;16.00;20.50;;;;;;4976291;28;20178;-69
2023/08/02 01:04:34;;;;;;;3.27;1.50;;;15.90;21.00;;;;;;4976508;28;20499;-69
2023/08/02 01:07:30;;;;;;;2.40;1.50;;;15.80;21.70;;;;;;4976565;28;20444;-69
2023/08/02 01:10:15;;;;;;;2.33;1.30;;;15.70;22.00;;;;;;4976493;28;20419;-69
2023/08/02 01:12:46;;;;;;;2.20;1.20;;;15.70;22.20;;;;;;4976103;28;20765;-69
2023/08/02 01:15:14;;;;;;;2.60;2.07;;;15.60;22.80;;;;;;4976370;28;20495;-69
2023/08/02 01:17:41;;;;;;;3.63;1.70;;;15.60;23.00;;;;;;4976598;28;20456;-68
2023/08/02 01:20:08;;;;;;;5.10;1.70;;;15.50;22.60;;;;;;4976257;28;20460;-68
2023/08/02 01:22:33;;;;;;;2.47;1.50;;;15.50;23.50;;;;;;4976098;28;20420;-67
2023/08/02 01:25:00;;;;;;;7.43;1.57;;;15.50;23.00;;;;;;4976075;28;20508;-69
2023/08/02 01:27:50;;;;;;;3.83;1.70;;;15.60;22.80;;;;;;4976093;28;20267;-68
2023/08/02 01:30:20;;;;;;;3.27;1.67;;;15.60;22.70;;;;;;4976265;28;20434;-69
2023/08/02 01:32:46;;;;;;;2.77;1.50;;;15.60;22.90;;;;;;4975684;28;20416;-69
2023/08/02 01:35:12;;;;;;;3.10;1.70;;;15.70;22.30;;;;;;4975849;28;20478;-68
2023/08/02 01:37:39;;;;;;;2.93;1.60;;;15.70;22.30;;;;;;4975899;28;20566;-68
2023/08/02 01:40:05;;;;;;;2.50;1.57;;;15.70;22.30;;;;;;4975804;28;20503;-68
2023/08/02 01:42:31;;;;;;;3.40;1.30;;;15.60;22.60;;;;;;4975824;28;20423;-68
2023/08/02 01:44:57;;;;;;;2.30;1.40;;;15.60;22.60;;;;;;4975643;28;20992;-68
2023/08/02 01:47:22;;;;;;;4.33;1.63;;;15.50;22.70;;;;;;4975626;28;20287;-68
2023/08/02 01:49:48;;;;;;;2.90;1.57;;;15.50;22.70;;;;;;4975615;28;20193;-68
2023/08/02 01:52:13;;;;;;;3.20;2.00;;;15.50;23.00;;;;;;4975473;28;20239;-69
2023/08/02 01:54:39;;;;;;;3.13;1.90;;;15.40;23.20;;;;;;4975594;28;20213;-68
2023/08/02 01:57:05;;;;;;;2.83;1.30;;;15.40;23.80;;;;;;4975499;28;20193;-69
2023/08/02 01:59:31;;;;;;;2.67;1.60;;;15.40;23.90;;;;;;4975515;28;20551;-68
2023/08/02 02:01:56;;;;;;;3.60;1.83;;;15.30;23.70;;;;;;4975324;28;20185;-68
2023/08/02 02:04:22;;;;;;;3.87;1.97;;;15.20;23.80;;;;;;4974705;28;20910;-69
2023/08/02 02:06:49;;;;;;;3.33;2.13;;;15.20;24.00;;;;;;4975517;28;20204;-68
2023/08/02 02:09:15;;;;;;;3.30;1.80;;;15.20;24.10;;;;;;4975717;28;20189;-68
2023/08/02 02:11:40;;;;;;;2.80;1.80;;;15.20;23.90;;;;;;4975159;28;20795;-68
2023/08/02 02:14:06;;;;;;;6.23;1.83;;;15.30;24.30;;;;;;4975220;28;20184;-68
2023/08/02 02:16:31;;;;;;;2.47;1.80;;;15.40;23.30;;;;;;4975102;28;20303;-68
2023/08/02 02:18:57;;;;;;;2.73;1.60;;;15.40;23.40;;;;;;4974986;28;20181;-68
2023/08/02 02:21:22;;;;;;;2.57;1.70;;;15.50;22.60;;;;;;4975152;28;20195;-68
2023/08/02 02:23:48;;;;;;;4.70;1.90;;;15.50;22.70;;;;;;4975034;28;20196;-68
2023/08/02 02:26:14;;;;;;;2.93;1.17;;;15.50;22.60;;;;;;4975203;28;20572;-68
2023/08/02 02:28:39;;;;;;;2.60;1.67;;;15.50;22.40;;;;;;4973802;28;20185;-67
2023/08/02 02:31:05;;;;;;;3.30;1.67;;;15.40;22.80;;;;;;4975103;28;20710;-68
2023/08/02 02:33:33;;;;;;;5.60;1.83;;;15.40;22.40;;;;;;4974881;28;20185;-67
2023/08/02 02:35:58;;;;;;;2.20;1.63;;;15.40;22.40;;;;;;4974881;28;20300;-68
2023/08/02 02:38:24;;;;;;;3.50;1.40;;;15.30;22.80;;;;;;4974969;28;20894;-67
2023/08/02 02:40:49;;;;;;;3.40;1.90;;;15.30;22.90;;;;;;4974843;28;20192;-68
2023/08/02 02:43:15;;;;;;;2.30;1.60;;;15.30;22.70;;;;;;4974695;28;20223;-67
2023/08/02 02:45:41;;;;;;;6.50;1.57;;;15.30;22.70;;;;;;4974661;28;20360;-68
2023/08/02 02:48:06;;;;;;;7.40;1.67;;;15.20;22.80;;;;;;4974828;28;20181;-68
2023/08/02 02:50:32;;;;;;;2.57;1.77;;;15.20;22.50;;;;;;4974862;28;20579;-68
2023/08/02 02:52:58;;;;;;;2.00;1.07;;;15.20;23.00;;;;;;4974448;28;20274;-69
2023/08/02 02:55:24;;;;;;;3.50;1.63;;;15.30;23.00;;;;;;4974549;28;20208;-69
2023/08/02 02:57:50;;;;;;;4.10;2.30;;;15.40;22.20;;;;;;4974854;28;20926;-68
2023/08/02 03:00:16;;;;;;;3.13;1.53;;;15.60;22.00;;;;;;4973185;28;20558;-69
2023/08/02 03:02:42;;;;;;;2.00;1.30;;;15.70;21.00;;;;;;4974203;28;20424;-69
2023/08/02 03:05:08;;;;;;;4.63;2.10;;;15.80;20.40;;;;;;4974381;28;20189;-69
2023/08/02 03:07:33;;;;;;;3.03;1.90;;;15.80;20.30;;;;;;4974404;28;20213;-68
2023/08/02 03:09:59;;;;;;;3.23;1.40;;;15.90;19.80;;;;;;4974322;28;20431;-70
2023/08/02 03:12:24;;;;;;;2.50;1.40;;;16.00;19.60;;;;;;4974101;28;20671;-69
2023/08/02 03:14:50;;;;;;;3.10;2.33;;;16.10;19.50;;;;;;4974002;28;20209;-69
2023/08/02 03:17:15;;;;;;;3.63;1.80;;;16.20;19.20;;;;;;4974010;28;20221;-69
2023/08/02 03:19:41;;;;;;;4.00;2.20;;;16.20;18.70;;;;;;4972494;28;20196;-69
2023/08/02 03:22:07;;;;;;;2.40;1.80;;;16.30;18.40;;;;;;4973884;28;20338;-69
2023/08/02 03:24:32;;;;;;;4.30;1.50;;;16.30;18.40;;;;;;4973967;28;20185;-69
2023/08/02 03:26:58;;;;;;;3.50;1.67;;;16.40;18.00;;;;;;4974086;28;20228;-69
2023/08/02 03:29:24;;;;;;;3.90;2.10;;;16.40;18.50;;;;;;4972534;28;20189;-68
2023/08/02 03:31:50;;;;;;;2.97;2.20;;;16.50;18.00;;;;;;4973375;28;20427;-68
2023/08/02 03:34:15;;;;;;;3.73;1.93;;;16.50;18.10;;;;;;4972977;28;20420;-68
2023/08/02 03:36:44;;;;;;;4.03;1.83;;;16.50;18.20;;;;;;4973841;28;20224;-68
2023/08/02 03:39:10;;;;;;;3.30;1.80;;;16.40;18.50;;;;;;4974967;28;20178;-69
2023/08/02 03:41:36;;;;;;;2.10;1.50;;;16.40;18.30;;;;;;4974713;28;20416;-68
2023/08/02 03:44:02;;;;;;;3.00;1.50;;;16.50;18.10;;;;;;4974196;28;20435;-68
2023/08/02 03:46:28;;;;;;;2.83;1.70;;;16.50;18.20;;;;;;4974030;28;20810;-68
2023/08/02 03:48:54;;;;;;;3.20;2.03;;;16.50;18.10;;;;;;4973379;28;20173;-68
2023/08/02 03:51:19;;;;;;;3.60;2.13;;;16.50;17.80;;;;;;4973583;28;21002;-69
2023/08/02 03:53:45;;;;;;;3.07;1.83;;;16.60;18.00;;;;;;4973470;28;20181;-69
2023/08/02 03:56:11;;;;;;;4.03;1.87;;;16.60;17.80;;;;;;4973384;28;20690;-68
2023/08/02 03:58:36;;;;;;;2.53;1.77;;;16.60;17.80;;;;;;4973462;28;20915;-69
2023/08/02 04:01:02;;;;;;;2.60;1.80;;;16.60;17.90;;;;;;4973370;28;20715;-69
2023/08/02 04:03:27;;;;;;;2.40;1.80;;;16.60;18.60;;;;;;4973328;28;20666;-69
2023/08/02 04:05:53;;;;;;;4.03;1.80;;;16.60;18.60;;;;;;4973548;28;20197;-69
2023/08/02 04:08:18;;;;;;;2.43;1.73;;;16.70;18.70;;;;;;4973443;28;20217;-69
2023/08/02 04:10:44;;;;;;;3.00;2.00;;;16.70;18.90;;;;;;4973469;28;20235;-68
2023/08/02 04:13:10;;;;;;;2.40;1.70;;;16.70;18.70;;;;;;4973032;28;20192;-69
2023/08/02 04:15:35;;;;;;;3.37;1.97;;;16.80;18.70;;;;;;4973024;28;20209;-69
2023/08/02 04:18:02;;;;;;;7.10;2.13;;;16.80;18.70;;;;;;4973284;28;20184;-69
2023/08/02 04:20:28;;;;;;;2.00;1.20;;;16.80;19.20;;;;;;4972165;28;20557;-69
2023/08/02 04:22:53;;;;;;;2.50;1.73;;;16.80;19.60;;;;;;4973006;28;20420;-68
2023/08/02 04:25:19;;;;;;;5.53;3.57;;;16.70;21.20;;;;;;4973351;28;20420;-69
2023/08/02 04:27:45;;;;;;;3.30;2.50;;;16.60;22.10;;;;;;4975777;28;20208;-68
2023/08/02 04:30:11;;;;;;;4.07;2.90;;;16.50;23.70;;;;;;4977269;28;20216;-68
2023/08/02 04:32:36;;;;;;;3.80;2.27;;;16.40;24.00;;;;;;4977222;28;20276;-69
2023/08/02 04:35:05;;;;;;;2.90;1.83;;;16.40;25.20;;;;;;4977236;28;20914;-68
2023/08/02 04:37:30;;;;;;;4.80;2.33;;;16.30;26.30;;;;;;4977077;28;20606;-68
2023/08/02 04:39:56;;;;;;;2.70;2.00;;;16.30;26.90;;;;;;4975973;28;20451;-68
2023/08/02 04:42:24;;;;;;;5.40;2.30;;;16.20;27.80;;;;;;4976711;28;20208;-68
2023/08/02 04:44:49;;;;;;;3.10;2.13;;;16.20;27.50;;;;;;4976949;28;20186;-68
2023/08/02 04:47:15;;;;;;;3.80;2.93;;;16.10;28.90;;;;;;4976809;28;20444;-68
2023/08/02 04:49:40;;;;;;;4.47;2.43;;;16.10;28.60;;;;;;4976872;28;20177;-69
2023/08/02 04:52:06;;;;;;;4.97;3.20;;;16.00;28.20;;;;;;4976684;28;20184;-68
2023/08/02 04:54:32;;;;;;;4.87;2.60;;;16.00;28.50;;;;;;4976784;28;20672;-68
2023/08/02 04:56:57;;;;;;;4.47;3.47;;;16.00;28.90;;;;;;4976725;28;20622;-69
2023/08/02 04:59:23;;;;;;;3.60;3.00;;;16.00;29.60;;;;;;4976549;28;20180;-69
2023/08/02 05:01:49;;;;;;;4.20;3.10;;;15.90;30.90;;;;;;4976578;28;20177;-69
2023/08/02 05:04:14;;;;;;;4.77;3.10;;;15.80;30.80;;;;;;4976581;28;20413;-68
2023/08/02 05:06:40;;;;;;;4.70;4.20;;;15.80;31.80;;;;;;4976558;28;20251;-68
2023/08/02 05:09:06;;;;;;;4.93;3.17;;;15.80;32.30;;;;;;4976679;28;20212;-70
2023/08/02 05:11:32;;;;;;;4.87;3.77;;;15.70;32.70;;;;;;4976207;28;20257;-69
2023/08/02 05:13:58;;;;;;;5.00;4.20;;;15.60;33.80;;;;;;4975174;28;20583;-68
2023/08/02 05:16:25;;;;;;;4.80;4.17;;;15.50;36.60;;;;;;4976200;28;20221;-68
2023/08/02 05:18:51;;;;;;;6.33;3.60;;;15.50;37.30;;;;;;4976464;28;20416;-69
2023/08/02 05:21:18;;;;;;;6.90;4.80;;;15.50;35.80;;;;;;4976288;28;20416;-69
2023/08/02 05:23:44;;;;;;;6.53;4.50;;;15.50;39.00;;;;;;4976236;28;20551;-69
2023/08/02 05:26:10;;;;;;;6.53;4.00;;;15.50;38.50;;;;;;4976171;28;20444;-68
2023/08/02 05:28:36;;;;;;;7.67;4.90;;;15.50;39.40;;;;;;4976451;28;20192;-70
2023/08/02 05:31:02;;;;;;;6.50;5.00;;;15.40;39.40;;;;;;4976193;28;20431;-69
2023/08/02 05:33:28;;;;;;;7.23;5.03;;;15.20;40.80;;;;;;4976100;28;20499;-70
2023/08/02 05:35:54;;;;;;;7.17;5.47;;;15.20;41.50;;;;;;4976204;28;20491;-69
2023/08/02 05:38:20;;;;;;;7.33;5.97;;;15.20;43.30;;;;;;4976055;28;20655;-69
2023/08/02 05:40:46;;;;;;;15.70;5.77;;;15.10;43.70;;;;;;4974951;28;20284;-69
2023/08/02 05:43:11;;;;;;;8.87;4.87;;;15.20;44.80;;;;;;4975800;28;21005;-68
2023/08/02 05:45:37;;;;;;;9.10;5.70;;;15.10;45.00;;;;;;4974719;28;20280;-68
2023/08/02 05:48:03;;;;;;;7.30;5.63;;;15.20;44.30;;;;;;4976283;28;20622;-69
2023/08/02 05:50:29;;;;;;;9.17;6.67;;;15.20;45.70;;;;;;4976165;28;20251;-69
2023/08/02 05:52:55;;;;;;;7.87;6.33;;;15.20;46.10;;;;;;4976054;28;20667;-69
2023/08/02 05:55:20;;;;;;;10.53;5.77;;;15.30;46.10;;;;;;4975965;28;20495;-69
2023/08/02 05:57:48;;;;;;;10.47;6.23;;;15.40;46.10;;;;;;4975898;28;20686;-69
2023/08/02 06:00:14;;;;;;;12.03;5.57;;;15.50;48.20;;;;;;4974660;28;20236;-69
2023/08/02 06:02:40;;;;;;;8.70;5.50;;;15.50;46.20;;;;;;4975377;28;20915;-69
2023/08/02 06:05:06;;;;;;;8.70;5.87;;;15.50;46.20;;;;;;4975823;28;20475;-69
2023/08/02 06:07:31;;;;;;;7.40;5.50;;;15.60;43.50;;;;;;4975693;28;20239;-69
2023/08/02 06:09:57;;;;;;;7.30;5.40;;;15.60;43.40;;;;;;4956815;28;20467;-70
2023/08/02 06:12:23;;;;;;;6.70;4.83;;;15.60;42.80;;;;;;4955900;28;20236;-70
2023/08/02 06:14:48;;;;;;;7.17;5.20;;;15.60;42.60;;;;;;4956169;28;20290;-70
2023/08/02 06:17:14;;;;;;;6.87;5.50;;;15.70;43.20;;;;;;4956086;28;20250;-69
2023/08/02 06:19:40;;;;;;;7.83;5.40;;;15.70;42.00;;;;;;4956318;28;20559;-69
2023/08/02 06:22:10;;;;;;;7.57;5.50;;;15.70;42.40;;;;;;4955705;28;20418;-69
2023/08/02 06:24:36;;;;;;;7.23;5.03;;;15.80;42.40;;;;;;4955877;29;20924;-69
2023/08/02 06:27:02;;;;;;;6.87;4.30;;;15.80;43.70;;;;;;4955801;28;20516;-69
2023/08/02 06:29:27;;;;;;;5.93;4.00;;;15.90;40.50;;;;;;4955836;28;20230;-68
2023/08/02 06:31:53;;;;;;;4.80;4.20;;;16.10;40.50;;;;;;4955370;28;20201;-68
2023/08/02 06:34:18;;;;;;;6.30;4.60;;;16.30;39.40;;;;;;4955801;28;20217;-68
2023/08/02 06:36:44;;;;;;;12.07;5.50;;;16.70;38.60;;;;;;4955469;28;20194;-68
2023/08/02 06:39:09;;;;;;;5.70;4.90;;;17.00;32.20;;;;;;4955340;28;20178;-68
2023/08/02 06:41:35;;;;;;;6.70;4.90;;;17.70;31.90;;;;;;4954906;28;20209;-67
2023/08/02 06:44:01;;;;;;;6.03;5.40;;;18.20;28.60;;;;;;4955594;28;20596;-68
2023/08/02 06:46:26;;;;;;;5.87;4.30;;;18.50;26.40;;;;;;4955165;28;20734;-68
2023/08/02 06:48:52;;;;;;;8.03;5.07;;;18.30;24.50;;;;;;4954868;28;20189;-68
2023/08/02 06:51:17;;;;;;;6.60;4.40;;;18.10;25.90;;;;;;4954701;28;20200;-68
2023/08/02 06:53:43;;;;;;;5.97;5.37;;;18.00;26.50;;;;;;4954822;29;20182;-68
2023/08/02 06:56:16;;;;;;;9.87;4.63;;;18.10;26.30;;;;;;4954779;29;20214;-68
2023/08/02 06:58:43;;;;;;;6.30;4.37;;;17.90;26.00;;;;;;4955120;29;20185;-68
2023/08/02 07:01:27;;;;;;;5.30;4.20;;;17.70;27.90;;;;;;4955044;29;20413;-70
2023/08/02 07:03:52;;;;;;;6.30;5.03;;;17.60;29.50;;;;;;4954431;29;20426;-68
2023/08/02 07:06:20;;;;;;;8.33;5.10;;;17.40;30.20;;;;;;4942885;29;20464;-68
2023/08/02 07:08:46;;;;;;;7.20;4.47;;;17.40;30.60;;;;;;4935641;29;20193;-68
2023/08/02 07:11:12;;;;;;;6.17;4.60;;;17.40;32.20;;;;;;4950041;29;20441;-68
2023/08/02 07:13:41;;;;;;;5.53;4.03;;;17.60;29.90;;;;;;4954803;28;20452;-68
2023/08/02 07:16:07;;;;;;;5.23;3.83;;;17.90;29.90;;;;;;4954910;28;20473;-68
2023/08/02 07:18:32;;;;;;;6.07;4.00;;;18.20;27.30;;;;;;4954764;28;20916;-68
2023/08/02 07:21:08;;;;;;;5.47;4.00;;;18.40;26.00;;;;;;4954639;28;20716;-68
2023/08/02 07:23:35;;;;;;;5.83;4.17;;;18.70;25.40;;;;;;4954355;28;20197;-68
2023/08/02 07:26:01;;;;;;;6.20;4.07;;;18.90;25.30;;;;;;4954518;28;20445;-68
2023/08/02 07:28:27;;;;;;;5.30;4.40;;;18.90;24.30;;;;;;4954115;29;20434;-68
2023/08/02 07:30:52;;;;;;;5.20;4.17;;;18.80;25.40;;;;;;4954565;28;20422;-68
2023/08/02 07:33:18;;;;;;;5.40;4.20;;;18.60;25.00;;;;;;4954073;28;20186;-68
2023/08/02 07:35:46;;;;;;;4.87;4.27;;;18.60;25.40;;;;;;4952945;29;20730;-68
2023/08/02 07:38:13;;;;;;;5.13;3.53;;;18.30;27.60;;;;;;4954332;28;20178;-68
2023/08/02 07:40:38;;;;;;;5.53;4.50;;;18.10;28.10;;;;;;4954333;28;20430;-68
2023/08/02 07:43:04;;;;;;;5.40;4.47;;;18.00;29.60;;;;;;4953741;28;20421;-69
2023/08/02 07:45:29;;;;;;;7.03;4.40;;;17.90;30.80;;;;;;4952907;29;20182;-68
2023/08/02 07:47:55;;;;;;;5.17;4.03;;;18.00;30.80;;;;;;4954015;29;20277;-69
2023/08/02 07:50:21;;;;;;;5.80;3.43;;;18.20;32.10;;;;;;4953049;29;20178;-68
2023/08/02 07:52:47;;;;;;;4.30;3.30;;;18.40;30.00;;;;;;4953956;29;20655;-68
2023/08/02 07:55:13;;;;;;;4.30;3.90;;;18.50;29.40;;;;;;4948220;28;20460;-68
2023/08/02 07:57:38;;;;;;;5.37;4.30;;;18.70;29.00;;;;;;4968717;28;20537;-68
2023/08/02 08:00:04;;;;;;;5.83;3.70;;;18.50;28.60;;;;;;4968651;28;20192;-68
2023/08/02 08:02:31;;;;;;;7.60;3.40;;;18.30;29.10;;;;;;4968229;28;20181;-68
2023/08/02 08:04:56;;;;;;;3.90;3.50;;;18.30;30.00;;;;;;4968614;28;20439;-68
2023/08/02 08:07:22;;;;;;;4.30;3.73;;;18.30;29.80;;;;;;4968400;28;20875;-68
2023/08/02 08:09:50;;;;;;;3.67;2.70;;;18.20;29.20;;;;;;4969428;28;20276;-68
2023/08/02 08:12:15;;;;;;;4.17;2.67;;;18.20;31.10;;;;;;4968391;28;20197;-68
2023/08/02 08:14:41;;;;;;;3.67;2.97;;;18.20;31.60;;;;;;4968536;28;20472;-68
2023/08/02 08:17:07;;;;;;;4.23;3.23;;;18.20;31.00;;;;;;4969182;28;20221;-68
2023/08/02 08:19:33;;;;;;;4.80;3.63;;;18.30;30.00;;;;;;4968378;28;20193;-68
2023/08/02 08:21:59;;;;;;;4.00;3.00;;;18.30;31.30;;;;;;4968462;28;20680;-69
2023/08/02 08:24:24;;;;;;;4.97;2.47;;;18.30;31.00;;;;;;4969003;28;20425;-68
2023/08/02 08:26:50;;;;;;;4.07;3.17;;;18.20;33.00;;;;;;4968279;28;20424;-68
2023/08/02 08:29:16;;;;;;;3.77;2.47;;;18.10;33.50;;;;;;4968952;28;20193;-70
2023/08/02 08:31:42;;;;;;;4.90;2.73;;;18.10;32.90;;;;;;4968404;28;20186;-68
2023/08/02 08:34:07;;;;;;;4.17;2.80;;;18.20;33.70;;;;;;4968288;28;20428;-68
2023/08/02 08:36:33;;;;;;;4.80;3.20;;;18.30;32.20;;;;;;4969268;28;20292;-68
2023/08/02 08:38:59;;;;;;;4.57;2.30;;;18.20;33.00;;;;;;4968684;28;20721;-67
2023/08/02 08:41:24;;;;;;;5.03;3.50;;;18.20;34.00;;;;;;4968375;28;20667;-67
2023/08/02 08:43:50;;;;;;;3.93;2.63;;;18.20;34.60;;;;;;4969258;28;20508;-67
2023/08/02 08:46:16;;;;;;;4.60;3.00;;;18.30;33.10;;;;;;4968925;28;20648;-66
2023/08/02 08:48:42;;;;;;;4.10;2.30;;;18.30;35.10;;;;;;4968332;28;20233;-67
2023/08/02 08:51:12;;;;;;;2.80;2.13;;;18.50;33.30;;;;;;4968978;28;20269;-66
2023/08/02 08:53:44;;;;;;;3.43;2.37;;;18.50;31.80;;;;;;4968366;28;21112;-67
2023/08/02 08:56:10;;;;;;;3.30;2.43;;;18.50;32.60;;;;;;4967977;28;20535;-67
2023/08/02 08:58:37;;;;;;;3.43;2.00;;;18.60;34.60;;;;;;4967922;28;20482;-68
2023/08/02 09:01:04;;;;;;;5.67;2.47;;;18.70;34.10;;;;;;4968685;28;20556;-68
2023/08/02 09:03:30;;;;;;;4.77;2.57;;;19.10;30.20;;;;;;4967803;28;20424;-67
2023/08/02 09:06:00;;;;;;;5.97;2.87;;;19.30;28.00;;;;;;4967798;28;20451;-67
2023/08/02 09:08:26;;;;;;;3.60;1.90;;;19.50;27.80;;;;;;4968941;28;20216;-68
2023/08/02 09:10:52;;;;;;;4.00;3.10;;;19.80;27.80;;;;;;4966739;28;21183;-67
2023/08/02 09:13:25;;;;;;;3.37;2.20;;;19.90;26.90;;;;;;4969127;28;20431;-67
2023/08/02 09:16:08;;;;;;;5.10;2.20;;;20.00;26.10;;;;;;4971446;28;20533;-68
2023/08/02 09:18:40;;;;;;;5.33;2.50;;;20.10;25.30;;;;;;4971474;28;20927;-67
2023/08/02 09:21:07;;;;;;;4.00;2.70;;;20.40;23.40;;;;;;4971546;28;20482;-67
2023/08/02 09:23:32;;;;;;;4.40;2.70;;;20.60;23.20;;;;;;4972028;28;20423;-68
2023/08/02 09:26:14;;;;;;;6.40;2.73;;;20.80;22.30;;;;;;4971193;28;20962;-68
2023/08/02 09:28:40;;;;;;;3.37;2.50;;;21.00;21.70;;;;;;4971499;28;20181;-68
2023/08/02 09:31:16;;;;;;;3.50;2.67;;;21.20;20.60;;;;;;4971198;28;20432;-67
2023/08/02 09:33:50;;;;;;;5.07;2.73;;;21.40;20.40;;;;;;4970922;28;20428;-67
2023/08/02 09:36:33;;;;;;;9.40;2.83;;;21.30;20.10;;;;;;4975163;28;20464;-72
2023/08/02 09:39:09;;;;;;;4.07;3.13;;;21.50;20.40;;;;;;4975905;28;20866;-72
2023/08/02 09:41:35;;;;;;;5.60;2.77;;;21.70;18.50;;;;;;4975412;28;20491;-72
2023/08/02 09:44:01;;;;;;;4.50;3.63;;;22.00;18.30;;;;;;4975773;28;20420;-71
2023/08/02 09:46:29;;;;;;;5.63;4.17;;;21.80;18.60;;;;;;4975655;28;20436;-71
2023/08/02 09:48:59;;;;;;;4.37;3.13;;;21.70;18.00;;;;;;4975617;28;20244;-71
2023/08/02 09:51:42;;;;;;;5.93;3.57;;;21.70;18.60;;;;;;4975505;28;20424;-71
2023/08/02 09:54:08;;;;;;;3.03;2.73;;;21.80;20.30;;;;;;4975507;28;20503;-71
2023/08/02 09:56:36;;;;;;;4.30;3.57;;;21.70;19.20;;;;;;4975501;28;20473;-72
2023/08/02 09:59:03;;;;;;;3.93;3.30;;;21.70;20.30;;;;;;4975354;28;20791;-72
2023/08/02 10:01:29;;;;;;;3.97;3.50;;;21.70;20.90;;;;;;4975042;28;20468;-72
2023/08/02 10:03:58;;;;;;;5.80;3.40;;;21.80;20.70;;;;;;4975217;28;20949;-72
2023/08/02 10:06:43;;;;;;;4.50;3.20;;;22.10;19.40;;;;;;4975291;28;20783;-72
2023/08/02 10:09:10;;;;;;;5.33;3.60;;;22.20;18.60;;;;;;4975407;28;20423;-72
2023/08/02 10:11:46;;;;;;;7.67;4.27;;;22.00;18.50;;;;;;4974866;28;20421;-71
2023/08/02 10:14:12;;;;;;;5.57;2.83;;;22.00;20.20;;;;;;4975087;28;20415;-72
2023/08/02 10:16:40;;;;;;;4.73;3.80;;;21.90;20.10;;;;;;4974892;28;20559;-74
2023/08/02 10:19:07;;;;;;;13.00;4.70;;;22.30;19.90;;;;;;4975007;28;20804;-69
2023/08/02 10:21:34;;;;;;;9.47;5.90;;;22.50;20.30;;;;;;4959934;28;20432;-70
2023/08/02 10:24:01;;;;;;;9.43;4.23;;;22.40;19.30;;;;;;4954849;28;20419;-68
2023/08/02 10:26:29;;;;;;;3.50;3.03;;;22.50;17.80;;;;;;4955130;28;20547;-68
2023/08/02 10:28:56;;;;;;;3.63;2.83;;;22.70;17.50;;;;;;4955526;28;20784;-68
2023/08/02 10:31:22;;;;;;;3.90;3.00;;;22.60;17.10;;;;;;4955239;28;20436;-69
2023/08/02 10:33:48;;;;;;;6.60;3.77;;;22.80;18.50;;;;;;4955078;28;20912;-68
2023/08/02 10:36:13;;;;;;;4.20;3.00;;;22.90;16.20;;;;;;4955187;28;20476;-69
2023/08/02 10:38:39;;;;;;;4.43;3.63;;;23.10;17.30;;;;;;4955246;28;20178;-68
2023/08/02 10:41:19;;;;;;;5.97;4.20;;;23.50;16.60;;;;;;4955087;28;20197;-69
2023/08/02 10:43:53;;;;;;;8.57;5.20;;;24.20;13.10;;;;;;4955020;28;20192;-69
2023/08/02 10:46:33;;;;;;;3.70;2.80;;;24.70;12.80;;;;;;4954983;29;20453;-68
2023/08/02 10:49:10;;;;;;;4.20;2.83;;;24.60;11.40;;;;;;4954377;28;20481;-67
2023/08/02 10:51:37;;;;;;;6.93;4.00;;;25.30;9.80;;;;;;4953164;29;20798;-68
2023/08/02 10:54:14;;;;;;;15.13;6.03;;;25.70;9.30;;;;;;4954768;29;20444;-69
2023/08/02 10:56:53;;;;;;;7.73;4.80;;;26.40;9.70;;;;;;4954434;29;21009;-68
2023/08/02 10:59:37;;;;;;;4.70;3.70;;;26.80;7.90;;;;;;4954754;28;20516;-67
2023/08/02 11:02:07;;;;;;;5.10;3.03;;;27.20;6.70;;;;;;4946482;29;20422;-68
2023/08/02 11:04:37;;;;;;;5.63;4.40;;;27.40;6.80;;;;;;4935763;29;20833;-68
2023/08/02 11:07:18;;;;;;;5.10;3.70;;;27.10;4.70;;;;;;4935714;29;20442;-69
2023/08/02 11:09:48;;;;;;;3.10;2.80;;;26.40;7.10;;;;;;4935415;29;20422;-68
2023/08/02 11:12:18;;;;;;;7.07;3.47;;;26.20;8.20;;;;;;4935159;29;20986;-68
2023/08/02 11:14:45;;;;;;;3.90;2.80;;;26.20;7.00;;;;;;4947187;29;20548;-68
2023/08/02 11:17:16;;;;;;;5.30;3.20;;;26.90;6.80;;;;;;4954317;29;20870;-69
2023/08/02 11:19:47;;;;;;;6.10;3.47;;;27.60;5.00;;;;;;4954543;29;20417;-68
2023/08/02 11:22:12;;;;;;;6.90;4.33;;;27.60;4.10;;;;;;4954246;29;20413;-68
2023/08/02 11:24:46;;;;;;;4.17;3.03;;;27.40;2.90;;;;;;4954524;29;21067;-68
2023/08/02 11:27:20;;;;;;;4.53;2.90;;;27.30;3.90;;;;;;4954419;29;20205;-68
2023/08/02 11:30:03;;;;;;;6.33;3.03;;;27.00;3.40;;;;;;4954232;29;20413;-68
2023/08/02 11:32:30;;;;;;;3.47;2.93;;;26.80;4.50;;;;;;4953879;29;20414;-68
2023/08/02 11:34:56;;;;;;;15.57;3.17;;;27.00;4.80;;;;;;4953995;29;20464;-68
2023/08/02 11:37:22;;;;;;;6.10;3.40;;;27.00;4.40;;;;;;4953948;28;20445;-67
2023/08/02 11:39:53;;;;;;;4.37;3.10;;;27.10;3.70;;;;;;4954153;29;20330;-68
2023/08/02 11:42:19;;;;;;;3.70;3.07;;;27.00;3.70;;;;;;4953855;29;20409;-68
2023/08/02 11:44:44;;;;;;;2.83;2.47;;;27.00;3.20;;;;;;4954002;29;20789;-68
2023/08/02 11:47:11;;;;;;;6.87;3.17;;;27.00;1.00;;;;;;4953947;29;20202;-67
2023/08/02 11:49:55;;;;;;;4.00;3.40;;;26.90;1.00;;;;;;4953976;29;20190;-68
2023/08/02 11:52:32;;;;;;;4.87;3.27;;;26.90;1.00;;;;;;4934756;29;20501;-68
2023/08/02 11:54:58;;;;;;;3.20;2.90;;;27.40;1.00;;;;;;4934694;29;20466;-68
2023/08/02 11:57:25;;;;;;;4.10;3.70;;;27.80;1.00;;;;;;4933291;29;20548;-68
2023/08/02 11:59:54;;;;;;;7.50;3.57;;;27.80;1.00;;;;;;4934678;29;20501;-72
2023/08/02 12:02:24;;;;;;;5.93;3.63;;;27.50;1.00;;;;;;4934315;29;20421;-69
2023/08/02 12:04:49;;;;;;;4.13;3.63;;;27.50;1.00;;;;;;4934799;29;20427;-70
2023/08/02 12:07:27;;;;;;;2.93;2.63;;;27.70;1.00;;;;;;4934708;29;20457;-70
2023/08/02 12:09:53;;;;;;;3.20;2.90;;;28.00;1.00;;;;;;4943059;28;20544;-69
2023/08/02 12:12:19;;;;;;;3.90;3.50;;;27.80;1.00;;;;;;4971471;28;20511;-70
2023/08/02 12:14:45;;;;;;;4.50;3.40;;;28.00;1.00;;;;;;4973060;28;20211;-70
2023/08/02 12:17:19;;;;;;;3.53;3.10;;;27.60;1.00;;;;;;4972947;28;20839;-69
2023/08/02 12:19:45;;;;;;;3.37;3.07;;;27.20;1.00;;;;;;4973552;28;20535;-71
2023/08/02 12:22:11;;;;;;;5.93;3.33;;;27.00;1.00;;;;;;4973108;28;20926;-69
2023/08/02 12:24:36;;;;;;;3.90;3.40;;;27.50;1.00;;;;;;4973170;28;20409;-71
2023/08/02 12:27:19;;;;;;;6.93;3.17;;;28.20;1.00;;;;;;4973022;28;20243;-68
2023/08/02 12:29:45;;;;;;;3.83;3.47;;;28.80;1.00;;;;;;4973045;28;20185;-71
2023/08/02 12:32:26;;;;;;;3.43;3.13;;;28.30;1.00;;;;;;4972526;28;20435;-69
2023/08/02 12:34:52;;;;;;;3.70;3.40;;;28.60;1.00;;;;;;4973301;28;20470;-69
2023/08/02 12:37:17;;;;;;;4.07;3.77;;;28.90;1.00;;;;;;4971557;28;20563;-69
2023/08/02 12:39:43;;;;;;;3.60;3.30;;;28.90;1.00;;;;;;4973049;28;20178;-69
2023/08/02 12:42:09;;;;;;;5.00;3.60;;;28.90;1.00;;;;;;4972588;28;20177;-73
2023/08/02 12:44:34;;;;;;;4.00;3.60;;;29.00;1.00;;;;;;4972818;28;20177;-69
2023/08/02 12:47:00;;;;;;;5.90;4.80;;;28.70;1.00;;;;;;4972836;28;20570;-68
2023/08/02 12:49:26;;;;;;;3.70;3.40;;;28.50;1.00;;;;;;4976377;28;20170;-71